createdAt,value
2023-05-10T00:00:12.808Z,98933.66
2023-05-10T00:01:42.889Z,98932.38
2023-05-10T00:02:49.539Z,98931.30
2023-05-10T00:03:57.187Z,98930.06
2023-05-10T00:05:04.563Z,98928.09
2023-05-10T00:06:11.811Z,98927.34
2023-05-10T00:07:20.303Z,98927.61
2023-05-10T00:08:27.174Z,98927.43
2023-05-10T00:09:34.059Z,98924.60
2023-05-10T00:10:41.192Z,98926.12
2023-05-10T00:11:49.368Z,98928.10
2023-05-10T00:12:56.345Z,98924.08
2023-05-10T00:14:03.133Z,98922.08
2023-05-10T00:15:13.248Z,98927.35
2023-05-10T00:16:20.180Z,98928.69
2023-05-10T00:17:27.293Z,98926.95
2023-05-10T00:18:34.203Z,98921.89
2023-05-10T00:19:41.025Z,98922.90
2023-05-10T00:20:48.168Z,98920.89
2023-05-10T00:21:55.377Z,98918.34
2023-05-10T00:23:02.060Z,98916.20
2023-05-10T00:24:09.281Z,98918.81
2023-05-10T00:25:16.473Z,98916.98
2023-05-10T00:26:23.501Z,98918.05
2023-05-10T00:27:31.735Z,98917.50
2023-05-10T00:28:38.695Z,98918.92
2023-05-10T00:29:45.652Z,98919.45
2023-05-10T00:30:52.380Z,98918.20
2023-05-10T00:32:00.491Z,98915.52
2023-05-10T00:33:07.670Z,98914.71
2023-05-10T00:34:14.582Z,98912.30
2023-05-10T00:35:21.970Z,98913.69
2023-05-10T00:36:30.368Z,98913.41
2023-05-10T00:37:37.192Z,98914.41
2023-05-10T00:38:44.240Z,98909.54
2023-05-10T00:39:50.845Z,98909.25
2023-05-10T00:40:58.629Z,98910.67
2023-05-10T00:42:08.411Z,98904.66
2023-05-10T00:43:15.817Z,98909.06
2023-05-10T00:44:23.283Z,98909.08
2023-05-10T00:45:31.189Z,98911.70
2023-05-10T00:46:38.370Z,98908.94
2023-05-10T00:47:45.357Z,98910.59
2023-05-10T00:48:52.203Z,98909.10
2023-05-10T00:49:59.985Z,98904.92
2023-05-10T00:51:07.237Z,98907.40
2023-05-10T00:52:17.195Z,98908.25
2023-05-10T00:53:24.471Z,98906.76
2023-05-10T00:54:31.573Z,98890.24
2023-05-10T00:55:39.170Z,98884.17
2023-05-10T00:56:50.922Z,98879.59
2023-05-10T00:57:57.989Z,98879.89
2023-05-10T00:59:04.982Z,98878.82
2023-05-10T01:00:12.489Z,98876.64
2023-05-10T01:01:22.830Z,98879.27
2023-05-10T01:02:30.437Z,98877.13
2023-05-10T01:03:37.985Z,98873.73
2023-05-10T01:04:46.894Z,98874.05
2023-05-10T01:05:54.480Z,98877.98
2023-05-10T01:07:02.317Z,98879.09
2023-05-10T01:08:10.706Z,98877.41
2023-05-10T01:09:17.962Z,98880.13
2023-05-10T01:10:25.177Z,98879.08
2023-05-10T01:11:32.145Z,98877.84
2023-05-10T01:12:42.318Z,98876.80
2023-05-10T01:13:51.247Z,98879.85
2023-05-10T01:14:58.601Z,98883.63
2023-05-10T01:16:07.125Z,98880.14
2023-05-10T01:17:15.429Z,98881.98
2023-05-10T01:18:22.085Z,98880.31
2023-05-10T01:19:31.425Z,98883.73
2023-05-10T01:20:42.295Z,98883.10
2023-05-10T01:22:12.392Z,98878.81
2023-05-10T01:23:47.037Z,98881.69
2023-05-10T01:25:31.522Z,98882.14
2023-05-10T01:27:05.241Z,98882.62
2023-05-10T01:28:46.967Z,98880.28
2023-05-10T01:30:25.524Z,98880.39
2023-05-10T01:31:58.939Z,98877.81
2023-05-10T01:33:34.138Z,98878.66
2023-05-10T01:35:04.300Z,98877.39
2023-05-10T01:36:39.033Z,98875.95
2023-05-10T01:37:52.240Z,98880.89
2023-05-10T01:39:11.299Z,98881.64
2023-05-10T01:40:41.882Z,98880.30
2023-05-10T01:42:13.666Z,98882.79
2023-05-10T01:43:23.081Z,98880.98
2023-05-10T01:44:46.788Z,98879.80
2023-05-10T01:46:13.101Z,98880.90
2023-05-10T01:47:49.682Z,98880.39
2023-05-10T01:48:58.881Z,98881.47
2023-05-10T01:50:10.803Z,98879.61
2023-05-10T01:51:25.205Z,98878.06
2023-05-10T01:52:46.939Z,98879.54
2023-05-10T01:53:59.890Z,98881.39
2023-05-10T01:55:15.088Z,98883.48
2023-05-10T01:56:23.725Z,98883.56
2023-05-10T01:57:34.947Z,98884.05
2023-05-10T01:58:44.108Z,98884.52
2023-05-10T01:59:53.152Z,98887.55
2023-05-10T02:01:03.611Z,98888.08
2023-05-10T02:02:14.775Z,98887.11
2023-05-10T02:03:24.115Z,98887.80
2023-05-10T02:04:32.871Z,98888.63
2023-05-10T02:05:41.339Z,98888.40
2023-05-10T02:06:50.471Z,98888.23
2023-05-10T02:07:57.856Z,98888.73
2023-05-10T02:09:05.579Z,98890.16
2023-05-10T02:10:12.782Z,98889.61
2023-05-10T02:11:20.221Z,98891.88
2023-05-10T02:12:28.115Z,98891.55
2023-05-10T02:13:36.205Z,98892.25
2023-05-10T02:14:43.170Z,98893.44
2023-05-10T02:15:54.605Z,98895.05
2023-05-10T02:17:02.463Z,98894.18
2023-05-10T02:18:10.507Z,98892.89
2023-05-10T02:19:17.523Z,98895.77
2023-05-10T02:20:26.594Z,98896.88
2023-05-10T02:21:35.998Z,98898.52
2023-05-10T02:22:44.282Z,98898.48
2023-05-10T02:23:53.912Z,98900.04
2023-05-10T02:25:02.423Z,98898.16
2023-05-10T02:26:30.374Z,98901.55
2023-05-10T02:27:39.618Z,98900.14
2023-05-10T02:28:48.710Z,98901.27
2023-05-10T02:29:56.299Z,98898.63
2023-05-10T02:31:03.686Z,98895.02
2023-05-10T02:32:11.600Z,98897.55
2023-05-10T02:33:19.157Z,98897.02
2023-05-10T02:34:27.815Z,98898.30
2023-05-10T02:35:35.880Z,98899.96
2023-05-10T02:36:43.681Z,98899.98
2023-05-10T02:37:51.067Z,98905.33
2023-05-10T02:38:57.933Z,98906.95
2023-05-10T02:40:06.499Z,98905.17
2023-05-10T02:41:13.286Z,98910.05
2023-05-10T02:42:21.355Z,98909.89
2023-05-10T02:43:28.976Z,98914.02
2023-05-10T02:44:39.691Z,98915.86
2023-05-10T02:45:49.656Z,98916.09
2023-05-10T02:46:58.391Z,98914.85
2023-05-10T02:48:05.331Z,98917.49
2023-05-10T02:49:13.351Z,98922.36
2023-05-10T02:50:20.698Z,98924.60
2023-05-10T02:51:28.836Z,98927.85
2023-05-10T02:52:46.022Z,98930.52
2023-05-10T02:53:53.784Z,98929.48
2023-05-10T02:55:03.625Z,98929.41
2023-05-10T02:56:27.520Z,98934.66
2023-05-10T02:57:38.221Z,98931.39
2023-05-10T02:58:45.248Z,98931.44
2023-05-10T02:59:51.917Z,98932.19
2023-05-10T03:00:59.441Z,98933.70
2023-05-10T03:02:06.053Z,98938.53
2023-05-10T03:03:13.260Z,98939.59
2023-05-10T03:04:20.062Z,98939.66
2023-05-10T03:05:30.225Z,98935.55
2023-05-10T03:06:39.341Z,98934.11
2023-05-10T03:07:47.374Z,98934.70
2023-05-10T03:08:55.893Z,98935.48
2023-05-10T03:10:04.384Z,98934.27
2023-05-10T03:11:39.924Z,98934.88
2023-05-10T03:13:05.357Z,98940.93
2023-05-10T03:14:53.115Z,98942.36
2023-05-10T03:16:22.544Z,98943.55
2023-05-10T03:18:01.423Z,98945.81
2023-05-10T03:19:30.247Z,98947.02
2023-05-10T03:20:39.660Z,98950.19
2023-05-10T03:21:50.259Z,98947.21
2023-05-10T03:23:05.699Z,98950.61
2023-05-10T03:24:14.211Z,98951.45
2023-05-10T03:25:21.339Z,98952.42
2023-05-10T03:26:30.564Z,98952.46
2023-05-10T03:27:44.563Z,98953.57
2023-05-10T03:28:51.072Z,98956.83
2023-05-10T03:29:58.011Z,98959.53
2023-05-10T03:31:06.710Z,98960.99
2023-05-10T03:32:13.786Z,98960.13
2023-05-10T03:33:20.763Z,98960.65
2023-05-10T03:34:27.823Z,98962.52
2023-05-10T03:35:35.663Z,98965.84
2023-05-10T03:36:44.504Z,98969.30
2023-05-10T03:37:52.696Z,98969.51
2023-05-10T03:39:01.250Z,98973.37
2023-05-10T03:40:09.900Z,98978.57
2023-05-10T03:41:18.110Z,98982.48
2023-05-10T03:42:25.606Z,98984.52
2023-05-10T03:43:32.858Z,98988.46
2023-05-10T03:44:41.275Z,98987.75
2023-05-10T03:45:49.665Z,98987.34
2023-05-10T03:46:59.640Z,98985.77
2023-05-10T03:48:08.362Z,98987.80
2023-05-10T03:49:15.748Z,98990.70
2023-05-10T03:50:23.669Z,98986.98
2023-05-10T03:51:33.894Z,98991.06
2023-05-10T03:52:45.233Z,98985.02
2023-05-10T03:53:53.277Z,98986.52
2023-05-10T03:55:00.497Z,98986.58
2023-05-10T03:56:07.314Z,98986.07
2023-05-10T03:57:14.746Z,98987.81
2023-05-10T03:58:21.317Z,98990.60
2023-05-10T03:59:29.188Z,98989.09
2023-05-10T04:00:37.955Z,98986.03
2023-05-10T04:01:45.868Z,98999.66
2023-05-10T04:02:54.182Z,99004.66
2023-05-10T04:04:01.403Z,98996.41
2023-05-10T04:05:09.413Z,99000.59
2023-05-10T04:06:16.687Z,98999.79
2023-05-10T04:07:24.736Z,99001.15
2023-05-10T04:08:32.209Z,99001.23
2023-05-10T04:09:41.122Z,99002.55
2023-05-10T04:10:49.005Z,98999.90
2023-05-10T04:11:56.680Z,98997.73
2023-05-10T04:13:04.961Z,99000.08
2023-05-10T04:14:12.423Z,99001.86
2023-05-10T04:15:20.525Z,99001.48
2023-05-10T04:16:28.107Z,99001.33
2023-05-10T04:17:36.266Z,98999.06
2023-05-10T04:18:44.351Z,98997.84
2023-05-10T04:19:51.310Z,98999.61
2023-05-10T04:20:58.497Z,98998.08
2023-05-10T04:22:06.188Z,98998.33
2023-05-10T04:23:14.361Z,99001.98
2023-05-10T04:24:21.377Z,99002.73
2023-05-10T04:25:28.591Z,99001.02
2023-05-10T04:26:36.025Z,98998.72
2023-05-10T04:27:44.455Z,98999.20
2023-05-10T04:28:51.909Z,98999.09
2023-05-10T04:29:59.882Z,98998.11
2023-05-10T04:31:12.686Z,98996.89
2023-05-10T04:32:19.604Z,98998.08
2023-05-10T04:33:27.900Z,99001.39
2023-05-10T04:34:36.724Z,99002.88
2023-05-10T04:35:44.067Z,99002.90
2023-05-10T04:36:51.500Z,99001.70
2023-05-10T04:37:59.210Z,99000.67
2023-05-10T04:39:07.582Z,99002.27
2023-05-10T04:40:15.798Z,99003.59
2023-05-10T04:41:23.552Z,99003.33
2023-05-10T04:42:31.751Z,98999.11
2023-05-10T04:43:40.229Z,98997.89
2023-05-10T04:44:47.095Z,98997.59
2023-05-10T04:45:57.072Z,99001.28
2023-05-10T04:47:05.322Z,99001.13
2023-05-10T04:48:12.920Z,99002.27
2023-05-10T04:49:20.817Z,99003.24
2023-05-10T04:50:28.471Z,99002.98
2023-05-10T04:51:36.218Z,99001.41
2023-05-10T04:52:44.435Z,99004.05
2023-05-10T04:54:04.685Z,99004.50
2023-05-10T04:55:13.504Z,99002.25
2023-05-10T04:56:20.368Z,99005.98
2023-05-10T04:57:27.691Z,99007.30
2023-05-10T04:58:35.419Z,99009.27
2023-05-10T04:59:42.875Z,99013.46
2023-05-10T05:00:49.674Z,99010.52
2023-05-10T05:01:57.424Z,99012.91
2023-05-10T05:03:05.950Z,99012.64
2023-05-10T05:04:13.911Z,99010.57
2023-05-10T05:05:24.090Z,99014.09
2023-05-10T05:06:31.208Z,99016.61
2023-05-10T05:07:38.463Z,99018.02
2023-05-10T05:08:46.719Z,99020.60
2023-05-10T05:09:54.458Z,99024.14
2023-05-10T05:11:01.664Z,99021.17
2023-05-10T05:12:09.793Z,99025.12
2023-05-10T05:13:16.743Z,99022.80
2023-05-10T05:14:24.141Z,99022.56
2023-05-10T05:15:33.310Z,99019.73
2023-05-10T05:16:41.658Z,99019.88
2023-05-10T05:17:48.361Z,99013.66
2023-05-10T05:18:55.547Z,99015.38
2023-05-10T05:20:02.356Z,99008.17
2023-05-10T05:21:19.128Z,99009.58
2023-05-10T05:22:30.100Z,99011.08
2023-05-10T05:23:40.019Z,99013.27
2023-05-10T05:24:47.243Z,99010.70
2023-05-10T05:25:57.580Z,99007.91
2023-05-10T05:27:05.978Z,99011.43
2023-05-10T05:28:14.331Z,99010.56
2023-05-10T05:29:21.517Z,99008.83
2023-05-10T05:30:28.517Z,99006.41
2023-05-10T05:31:35.600Z,99004.34
2023-05-10T05:32:42.423Z,98999.80
2023-05-10T05:33:50.241Z,99002.64
2023-05-10T05:34:57.349Z,99001.56
2023-05-10T05:36:04.735Z,99000.37
2023-05-10T05:37:17.099Z,99000.09
2023-05-10T05:38:25.004Z,99001.73
2023-05-10T05:39:32.254Z,99003.05
2023-05-10T05:40:39.342Z,99004.83
2023-05-10T05:41:48.064Z,99005.80
2023-05-10T05:42:55.306Z,99006.60
2023-05-10T05:44:02.500Z,99005.40
2023-05-10T05:45:11.978Z,99004.28
2023-05-10T05:46:19.283Z,99006.91
2023-05-10T05:47:27.358Z,99004.28
2023-05-10T05:48:34.854Z,99000.41
2023-05-10T05:49:43.481Z,99002.84
2023-05-10T05:50:50.821Z,99002.39
2023-05-10T05:52:01.634Z,99005.37
2023-05-10T05:53:09.277Z,99007.63
2023-05-10T05:54:16.915Z,99009.73
2023-05-10T05:55:24.704Z,99005.47
2023-05-10T05:56:31.565Z,99004.11
2023-05-10T05:57:38.446Z,99002.89
2023-05-10T05:58:46.836Z,99001.77
2023-05-10T05:59:55.286Z,98998.23
2023-05-10T06:01:05.461Z,99000.33
2023-05-10T06:02:13.015Z,98997.70
2023-05-10T06:03:21.020Z,98995.48
2023-05-10T06:04:28.795Z,98994.61
2023-05-10T06:05:37.379Z,98990.55
2023-05-10T06:06:45.027Z,98989.02
2023-05-10T06:07:53.705Z,98984.41
2023-05-10T06:09:01.444Z,98980.08
2023-05-10T06:10:09.979Z,98976.77
2023-05-10T06:11:17.249Z,98976.99
2023-05-10T06:12:24.637Z,98975.83
2023-05-10T06:13:35.019Z,98969.25
2023-05-10T06:14:43.451Z,98972.55
2023-05-10T06:15:50.742Z,98967.20
2023-05-10T06:16:59.027Z,98968.39
2023-05-10T06:18:06.828Z,98970.14
2023-05-10T06:19:15.302Z,98971.15
2023-05-10T06:20:22.737Z,98976.34
2023-05-10T06:21:30.726Z,98980.82
2023-05-10T06:22:38.790Z,98984.55
2023-05-10T06:23:47.282Z,98986.72
2023-05-10T06:24:54.539Z,98984.88
2023-05-10T06:26:02.324Z,98988.40
2023-05-10T06:27:10.466Z,98991.67
2023-05-10T06:28:17.443Z,98988.13
2023-05-10T06:29:25.234Z,98987.48
2023-05-10T06:30:34.313Z,98989.37
2023-05-10T06:31:43.200Z,98988.42
2023-05-10T06:32:50.389Z,98989.38
2023-05-10T06:33:58.740Z,98988.63
2023-05-10T06:35:07.368Z,98986.15
2023-05-10T06:36:15.384Z,98984.77
2023-05-10T06:37:23.031Z,98984.27
2023-05-10T06:38:31.215Z,98980.61
2023-05-10T06:39:39.437Z,98984.90
2023-05-10T06:40:47.177Z,98984.60
2023-05-10T06:41:55.053Z,98981.50
2023-05-10T06:43:02.172Z,98983.05
2023-05-10T06:44:08.831Z,98985.10
2023-05-10T06:45:16.976Z,98985.60
2023-05-10T06:46:25.215Z,98989.91
2023-05-10T06:47:34.761Z,98998.16
2023-05-10T06:48:44.572Z,99002.80
2023-05-10T06:49:52.287Z,99007.73
2023-05-10T06:51:00.542Z,99013.47
2023-05-10T06:52:08.177Z,99015.48
2023-05-10T06:53:16.141Z,99017.20
2023-05-10T06:54:24.187Z,99020.73
2023-05-10T06:55:32.247Z,99025.36
2023-05-10T06:56:56.394Z,99022.56
2023-05-10T06:58:04.698Z,99025.37
2023-05-10T06:59:12.172Z,99021.51
2023-05-10T07:00:21.249Z,99019.45
2023-05-10T07:01:30.355Z,99013.92
2023-05-10T07:02:38.527Z,99010.88
2023-05-10T07:03:46.625Z,99008.48
2023-05-10T07:04:54.334Z,99007.10
2023-05-10T07:06:06.129Z,99007.59
2023-05-10T07:07:14.062Z,99008.39
2023-05-10T07:08:20.903Z,99008.76
2023-05-10T07:09:29.037Z,99010.52
2023-05-10T07:10:37.204Z,99010.30
2023-05-10T07:11:45.434Z,99013.81
2023-05-10T07:12:52.856Z,99012.59
2023-05-10T07:14:00.581Z,99012.73
2023-05-10T07:15:08.640Z,99014.02
2023-05-10T07:16:17.241Z,99008.52
2023-05-10T07:17:24.503Z,99006.98
2023-05-10T07:18:32.881Z,99004.02
2023-05-10T07:19:40.726Z,99006.88
2023-05-10T07:20:48.236Z,99010.10
2023-05-10T07:21:55.383Z,99007.16
2023-05-10T07:23:04.487Z,99007.08
2023-05-10T07:24:12.631Z,99010.21
2023-05-10T07:25:20.090Z,99011.63
2023-05-10T07:26:28.649Z,99011.20
2023-05-10T07:27:37.644Z,99009.98
2023-05-10T07:28:45.291Z,99009.55
2023-05-10T07:29:53.433Z,99009.92
2023-05-10T07:31:00.234Z,99005.36
2023-05-10T07:32:08.012Z,99002.38
2023-05-10T07:33:15.832Z,99007.52
2023-05-10T07:34:22.756Z,99008.36
2023-05-10T07:35:31.202Z,99008.27
2023-05-10T07:36:39.636Z,99011.23
2023-05-10T07:37:47.896Z,99010.26
2023-05-10T07:38:55.850Z,99008.19
2023-05-10T07:40:03.942Z,99007.05
2023-05-10T07:41:11.480Z,99010.73
2023-05-10T07:42:18.904Z,99007.46
2023-05-10T07:43:26.750Z,99006.15
2023-05-10T07:44:33.954Z,99008.41
2023-05-10T07:45:41.806Z,99007.05
2023-05-10T07:46:50.227Z,99007.30
2023-05-10T07:47:57.507Z,99005.16
2023-05-10T07:49:05.442Z,99006.54
2023-05-10T07:50:14.096Z,99005.73
2023-05-10T07:51:20.990Z,99004.80
2023-05-10T07:52:28.867Z,99008.52
2023-05-10T07:53:37.472Z,99010.77
2023-05-10T07:54:45.295Z,99012.55
2023-05-10T07:55:58.560Z,99015.83
2023-05-10T07:57:07.092Z,99011.96
2023-05-10T07:58:14.173Z,99010.48
2023-05-10T07:59:21.790Z,99009.90
2023-05-10T08:00:29.613Z,99009.10
2023-05-10T08:01:37.770Z,99005.94
2023-05-10T08:02:45.807Z,99003.53
2023-05-10T08:03:53.729Z,99005.30
2023-05-10T08:05:02.131Z,99004.15
2023-05-10T08:06:09.912Z,99007.07
2023-05-10T08:07:16.996Z,99008.42
2023-05-10T08:08:25.259Z,99007.56
2023-05-10T08:09:32.269Z,99005.28
2023-05-10T08:10:40.921Z,99005.61
2023-05-10T08:11:48.846Z,99002.11
2023-05-10T08:12:56.966Z,98994.22
2023-05-10T08:14:04.187Z,98990.67
2023-05-10T08:15:11.759Z,98987.52
2023-05-10T08:16:19.556Z,98983.57
2023-05-10T08:17:27.592Z,98982.38
2023-05-10T08:18:38.377Z,98979.77
2023-05-10T08:19:45.560Z,98977.23
2023-05-10T08:20:52.629Z,98975.80
2023-05-10T08:22:00.529Z,98971.54
2023-05-10T08:23:08.711Z,98969.30
2023-05-10T08:24:16.087Z,98967.61
2023-05-10T08:25:23.985Z,98971.34
2023-05-10T08:26:32.472Z,98969.65
2023-05-10T08:27:41.185Z,98969.01
2023-05-10T08:28:49.463Z,98964.45
2023-05-10T08:29:57.263Z,98962.39
2023-05-10T08:31:05.212Z,98959.93
2023-05-10T08:32:12.652Z,98955.56
2023-05-10T08:33:21.190Z,98954.20
2023-05-10T08:34:28.639Z,98955.24
2023-05-10T08:35:37.438Z,98957.72
2023-05-10T08:36:45.611Z,98958.98
2023-05-10T08:37:53.429Z,98961.45
2023-05-10T08:39:00.950Z,98962.98
2023-05-10T08:40:09.226Z,98965.27
2023-05-10T08:41:17.178Z,98967.20
2023-05-10T08:42:25.109Z,98968.23
2023-05-10T08:43:33.899Z,98970.73
2023-05-10T08:44:40.465Z,98970.51
2023-05-10T08:45:51.005Z,98968.44
2023-05-10T08:46:59.004Z,98969.09
2023-05-10T08:48:08.200Z,98967.99
2023-05-10T08:49:21.423Z,98970.23
2023-05-10T08:50:28.369Z,98972.03
2023-05-10T08:51:39.952Z,98974.54
2023-05-10T08:52:48.135Z,98974.31
2023-05-10T08:53:55.003Z,98975.18
2023-05-10T08:55:02.397Z,98973.23
2023-05-10T08:56:10.911Z,98972.45
2023-05-10T08:57:18.180Z,98970.94
2023-05-10T08:58:26.017Z,98972.35
2023-05-10T08:59:35.693Z,98969.34
2023-05-10T09:00:43.065Z,98975.00
2023-05-10T09:01:52.800Z,98977.71
2023-05-10T09:03:01.581Z,98976.08
2023-05-10T09:04:09.199Z,98970.55
2023-05-10T09:05:18.860Z,98967.96
2023-05-10T09:06:26.947Z,98965.67
2023-05-10T09:07:34.792Z,98961.63
2023-05-10T09:08:43.989Z,98956.99
2023-05-10T09:09:50.565Z,98953.15
2023-05-10T09:11:01.616Z,98955.23
2023-05-10T09:12:09.931Z,98951.30
2023-05-10T09:13:17.677Z,98952.17
2023-05-10T09:14:25.990Z,98952.75
2023-05-10T09:15:33.990Z,98954.29
2023-05-10T09:16:42.658Z,98951.70
2023-05-10T09:17:49.597Z,98951.50
2023-05-10T09:18:58.152Z,98951.80
2023-05-10T09:20:07.104Z,98951.56
2023-05-10T09:21:15.024Z,98949.52
2023-05-10T09:22:21.980Z,98953.59
2023-05-10T09:23:35.297Z,98953.81
2023-05-10T09:24:47.916Z,98958.01
2023-05-10T09:26:11.040Z,98957.11
2023-05-10T09:27:18.062Z,98961.21
2023-05-10T09:28:25.833Z,98962.25
2023-05-10T09:29:46.595Z,98963.77
2023-05-10T09:30:58.826Z,98964.39
2023-05-10T09:32:06.636Z,98958.57
2023-05-10T09:33:14.534Z,98958.55
2023-05-10T09:34:22.540Z,98956.27
2023-05-10T09:35:31.112Z,98955.46
2023-05-10T09:36:38.212Z,98953.94
2023-05-10T09:37:46.694Z,98956.40
2023-05-10T09:38:57.200Z,98955.79
2023-05-10T09:40:08.492Z,98954.08
2023-05-10T09:41:21.190Z,98952.13
2023-05-10T09:42:28.953Z,98953.46
2023-05-10T09:43:40.824Z,98953.35
2023-05-10T09:44:49.188Z,98954.71
2023-05-10T09:45:56.848Z,98955.08
2023-05-10T09:47:05.516Z,98956.08
2023-05-10T09:48:14.268Z,98954.98
2023-05-10T09:49:22.685Z,98960.60
2023-05-10T09:50:30.295Z,98964.73
2023-05-10T09:51:38.220Z,98967.79
2023-05-10T09:53:01.214Z,98968.11
2023-05-10T09:54:18.473Z,98969.52
2023-05-10T09:55:26.978Z,98965.08
2023-05-10T09:56:39.787Z,98961.83
2023-05-10T09:57:47.263Z,98962.44
2023-05-10T09:59:05.968Z,98960.06
2023-05-10T10:00:13.321Z,98962.43
2023-05-10T10:01:20.101Z,98963.23
2023-05-10T10:02:31.741Z,98968.63
2023-05-10T10:03:38.626Z,98963.97
2023-05-10T10:04:49.275Z,98966.52
2023-05-10T10:05:58.189Z,98969.53
2023-05-10T10:07:06.976Z,98971.05
2023-05-10T10:08:14.641Z,98969.55
2023-05-10T10:09:21.684Z,98966.42
2023-05-10T10:10:29.500Z,98964.93
2023-05-10T10:11:40.557Z,98967.56
2023-05-10T10:12:48.796Z,98968.22
2023-05-10T10:13:56.862Z,98968.02
2023-05-10T10:15:04.913Z,98970.16
2023-05-10T10:16:13.161Z,98967.95
2023-05-10T10:17:22.498Z,98963.71
2023-05-10T10:18:32.242Z,98964.56
2023-05-10T10:19:40.089Z,98963.09
2023-05-10T10:20:47.512Z,98966.80
2023-05-10T10:21:55.105Z,98970.06
2023-05-10T10:23:03.045Z,98972.63
2023-05-10T10:24:10.699Z,98974.52
2023-05-10T10:25:19.810Z,98977.40
2023-05-10T10:26:27.485Z,98978.15
2023-05-10T10:27:58.031Z,98979.01
2023-05-10T10:29:25.660Z,98981.35
2023-05-10T10:30:46.999Z,98984.55
2023-05-10T10:32:23.174Z,98986.02
2023-05-10T10:34:03.070Z,98985.28
2023-05-10T10:35:11.693Z,98984.67
2023-05-10T10:36:18.454Z,98984.05
2023-05-10T10:37:25.922Z,98985.92
2023-05-10T10:39:03.657Z,98985.45
2023-05-10T10:40:34.602Z,98983.73
2023-05-10T10:41:52.494Z,98985.92
2023-05-10T10:43:00.497Z,98986.73
2023-05-10T10:44:42.804Z,98981.02
2023-05-10T10:46:11.584Z,98983.44
2023-05-10T10:47:32.220Z,98984.46
2023-05-10T10:48:39.123Z,98983.86
2023-05-10T10:49:51.363Z,98983.79
2023-05-10T10:51:01.395Z,98985.52
2023-05-10T10:52:31.672Z,98989.13
2023-05-10T10:53:41.852Z,98988.13
2023-05-10T10:55:00.589Z,98987.73
2023-05-10T10:56:12.189Z,98986.30
2023-05-10T10:57:21.369Z,98986.27
2023-05-10T10:58:38.898Z,98986.21
2023-05-10T10:59:46.652Z,98987.19
2023-05-10T11:00:53.774Z,98985.90
2023-05-10T11:02:02.703Z,98987.31
2023-05-10T11:03:20.190Z,98990.27
2023-05-10T11:04:27.437Z,98992.73
2023-05-10T11:05:40.327Z,98994.55
2023-05-10T11:06:50.610Z,98995.95
2023-05-10T11:07:58.544Z,98994.80
2023-05-10T11:09:09.659Z,98994.90
2023-05-10T11:10:18.238Z,98991.36
2023-05-10T11:11:25.419Z,98989.67
2023-05-10T11:12:33.290Z,98986.79
2023-05-10T11:13:50.821Z,98986.83
2023-05-10T11:15:03.584Z,98986.98
2023-05-10T11:16:26.907Z,98987.11
2023-05-10T11:17:35.091Z,98992.45
2023-05-10T11:18:43.241Z,98991.31
2023-05-10T11:20:12.508Z,98994.58
2023-05-10T11:21:19.535Z,98999.40
2023-05-10T11:22:26.694Z,98998.89
2023-05-10T11:23:53.614Z,98996.11
2023-05-10T11:25:04.677Z,98999.15
2023-05-10T11:26:12.573Z,99002.33
2023-05-10T11:27:19.671Z,99003.69
2023-05-10T11:28:26.639Z,99005.48
2023-05-10T11:29:33.635Z,99006.50
2023-05-10T11:30:44.921Z,99001.71
2023-05-10T11:31:52.011Z,98987.06
2023-05-10T11:32:59.112Z,98976.80
2023-05-10T11:34:06.160Z,98976.88
2023-05-10T11:35:13.756Z,98977.64
2023-05-10T11:36:22.647Z,98978.55
2023-05-10T11:37:39.507Z,98979.05
2023-05-10T11:38:47.188Z,98982.98
2023-05-10T11:39:54.577Z,98980.73
2023-05-10T11:41:01.926Z,98984.22
2023-05-10T11:42:12.059Z,98985.29
2023-05-10T11:43:18.710Z,98984.48
2023-05-10T11:44:26.278Z,98982.98
2023-05-10T11:45:37.491Z,98979.54
2023-05-10T11:46:44.598Z,98981.87
2023-05-10T11:47:52.372Z,98978.77
2023-05-10T11:49:04.298Z,98977.77
2023-05-10T11:50:12.475Z,98977.88
2023-05-10T11:51:23.122Z,98979.32
2023-05-10T11:52:30.153Z,98980.60
2023-05-10T11:53:36.885Z,98979.05
2023-05-10T11:54:57.356Z,98977.17
2023-05-10T11:56:11.926Z,98979.02
2023-05-10T11:57:19.108Z,98981.02
2023-05-10T11:58:26.730Z,98980.64
2023-05-10T11:59:32.512Z,98985.55
2023-05-10T12:00:40.983Z,98983.50
2023-05-10T12:01:49.685Z,98985.30
2023-05-10T12:02:56.838Z,98989.27
2023-05-10T12:04:04.236Z,98991.04
2023-05-10T12:05:12.549Z,98991.58
2023-05-10T12:06:21.310Z,98992.30
2023-05-10T12:07:30.341Z,98995.14
2023-05-10T12:08:38.264Z,98995.50
2023-05-10T12:10:07.657Z,98995.35
2023-05-10T12:11:15.934Z,98990.22
2023-05-10T12:12:23.476Z,98990.35
2023-05-10T12:13:31.463Z,98991.65
2023-05-10T12:14:40.237Z,98994.03
2023-05-10T12:15:48.134Z,98996.10
2023-05-10T12:16:56.180Z,98995.52
2023-05-10T12:18:04.416Z,98993.14
2023-05-10T12:19:12.944Z,98996.20
2023-05-10T12:20:24.113Z,98995.78
2023-05-10T12:21:33.306Z,98995.37
2023-05-10T12:22:42.105Z,98997.75
2023-05-10T12:23:56.413Z,98999.98
2023-05-10T12:25:04.322Z,98999.41
2023-05-10T12:26:15.325Z,98999.77
2023-05-10T12:27:23.378Z,99000.63
2023-05-10T12:28:33.805Z,99003.55
2023-05-10T12:29:47.055Z,99003.95
2023-05-10T12:30:55.932Z,99002.33
2023-05-10T12:32:02.675Z,99004.89
2023-05-10T12:33:14.631Z,99006.33
2023-05-10T12:34:30.030Z,99007.39
2023-05-10T12:35:46.616Z,99008.80
2023-05-10T12:36:57.989Z,99006.37
2023-05-10T12:38:05.989Z,99008.70
2023-05-10T12:39:14.193Z,99012.39
2023-05-10T12:40:21.380Z,99012.23
2023-05-10T12:41:29.463Z,99012.60
2023-05-10T12:42:39.255Z,99014.77
2023-05-10T12:43:47.790Z,99015.47
2023-05-10T12:45:00.984Z,99020.38
2023-05-10T12:46:12.162Z,99018.02
2023-05-10T12:47:19.298Z,99020.40
2023-05-10T12:48:26.738Z,99022.20
2023-05-10T12:49:35.367Z,99019.50
2023-05-10T12:50:43.711Z,99020.25
2023-05-10T12:51:52.836Z,99021.93
2023-05-10T12:53:00.775Z,99020.10
2023-05-10T12:54:08.858Z,99021.23
2023-05-10T12:55:16.660Z,99023.77
2023-05-10T12:56:23.888Z,99025.06
2023-05-10T12:57:30.517Z,99025.52
2023-05-10T12:58:38.699Z,99027.02
2023-05-10T12:59:45.660Z,99025.41
2023-05-10T13:00:53.969Z,99027.25
2023-05-10T13:02:01.542Z,99029.08
2023-05-10T13:03:08.737Z,99031.73
2023-05-10T13:04:16.341Z,99029.67
2023-05-10T13:05:23.830Z,99029.09
2023-05-10T13:06:34.206Z,99029.02
2023-05-10T13:07:41.120Z,99029.27
2023-05-10T13:08:47.937Z,99033.90
2023-05-10T13:09:54.759Z,99036.23
2023-05-10T13:11:03.547Z,99036.54
2023-05-10T13:12:11.052Z,99042.11
2023-05-10T13:13:21.318Z,99043.62
2023-05-10T13:14:30.348Z,99044.69
2023-05-10T13:15:37.576Z,99048.67
2023-05-10T13:16:44.954Z,99050.11
2023-05-10T13:17:52.180Z,99051.22
2023-05-10T13:18:58.924Z,99055.26
2023-05-10T13:20:06.272Z,99055.18
2023-05-10T13:21:14.089Z,99053.71
2023-05-10T13:22:32.533Z,99054.51
2023-05-10T13:23:46.705Z,99057.06
2023-05-10T13:24:57.418Z,99059.85
2023-05-10T13:26:06.232Z,99059.14
2023-05-10T13:27:15.001Z,99059.50
2023-05-10T13:28:21.736Z,99060.02
2023-05-10T13:29:29.608Z,99058.50
2023-05-10T13:30:37.582Z,99060.51
2023-05-10T13:31:45.384Z,99062.02
2023-05-10T13:32:52.884Z,99066.16
2023-05-10T13:34:01.416Z,99065.41
2023-05-10T13:35:10.535Z,99064.83
2023-05-10T13:36:17.804Z,99061.22
2023-05-10T13:37:25.811Z,99061.73
2023-05-10T13:38:33.390Z,99066.27
2023-05-10T13:39:40.367Z,99065.14
2023-05-10T13:40:47.585Z,99067.91